createdAt,value
2023-05-19T00:01:49.293Z,2.33
2023-05-19T00:04:55.089Z,2.58
2023-05-19T00:08:01.835Z,2.08
2023-05-19T00:11:07.685Z,2.05
2023-05-19T00:14:16.676Z,2.30
2023-05-19T00:17:23.694Z,1.95
2023-05-19T00:20:28.698Z,2.05
2023-05-19T00:23:33.782Z,1.60
2023-05-19T00:26:39.118Z,1.63
2023-05-19T00:29:45.056Z,1.58
2023-05-19T00:32:51.588Z,2.00
2023-05-19T00:35:56.635Z,1.73
2023-05-19T00:39:01.653Z,1.65
2023-05-19T00:42:07.246Z,2.00
2023-05-19T00:45:12.514Z,2.00
2023-05-19T00:48:18.989Z,1.85
2023-05-19T00:51:27.961Z,1.65
2023-05-19T00:54:33.707Z,2.00
2023-05-19T00:57:39.393Z,1.83
2023-05-19T01:00:44.624Z,1.55
2023-05-19T01:03:51.610Z,1.67
2023-05-19T01:06:56.670Z,1.50
2023-05-19T01:10:01.654Z,1.63
2023-05-19T01:13:07.597Z,1.67
2023-05-19T01:16:15.524Z,2.40
2023-05-19T01:19:42.009Z,1.70
2023-05-19T01:23:16.880Z,1.70
2023-05-19T01:26:40.487Z,1.50
2023-05-19T01:29:53.043Z,1.88
2023-05-19T01:33:01.770Z,2.00
2023-05-19T01:36:08.185Z,1.92
2023-05-19T01:39:15.160Z,1.70
2023-05-19T01:42:20.751Z,1.83
2023-05-19T01:45:26.364Z,1.75
2023-05-19T01:48:32.942Z,1.80
2023-05-19T01:51:38.243Z,2.15
2023-05-19T01:54:43.552Z,1.50
2023-05-19T01:57:57.665Z,1.60
2023-05-19T02:01:19.583Z,1.70
2023-05-19T02:04:35.886Z,2.47
2023-05-19T02:07:48.003Z,2.92
2023-05-19T02:10:56.832Z,2.13
2023-05-19T02:14:04.553Z,2.20
2023-05-19T02:17:10.968Z,1.85
2023-05-19T02:20:17.966Z,1.60
2023-05-19T02:23:22.998Z,1.83
2023-05-19T02:26:28.208Z,1.80
2023-05-19T02:29:33.232Z,1.88
2023-05-19T02:32:38.568Z,1.98
2023-05-19T02:35:45.128Z,1.90
2023-05-19T02:38:50.230Z,2.20
2023-05-19T02:41:55.288Z,2.10
2023-05-19T02:45:01.163Z,1.65
2023-05-19T02:48:06.748Z,2.05
2023-05-19T02:51:13.358Z,1.85
2023-05-19T02:54:18.586Z,1.83
2023-05-19T02:57:24.205Z,1.90
2023-05-19T03:00:29.462Z,1.90
2023-05-19T03:03:34.703Z,2.25
2023-05-19T03:06:42.275Z,2.05
2023-05-19T03:09:47.349Z,2.20
2023-05-19T03:12:52.326Z,2.05
2023-05-19T03:15:59.281Z,1.90
2023-05-19T03:19:04.477Z,2.13
2023-05-19T03:22:12.165Z,2.10
2023-05-19T03:25:17.149Z,1.70
2023-05-19T03:28:23.412Z,1.92
2023-05-19T03:31:28.494Z,2.17
2023-05-19T03:34:34.248Z,2.40
2023-05-19T03:37:41.677Z,2.10
2023-05-19T03:40:46.788Z,2.53
2023-05-19T03:43:51.954Z,2.13
2023-05-19T03:46:57.426Z,2.25
2023-05-19T03:50:21.271Z,2.00
2023-05-19T03:53:32.175Z,2.35
2023-05-19T03:56:41.110Z,1.73
2023-05-19T03:59:46.128Z,1.70
2023-05-19T04:02:51.351Z,1.88
2023-05-19T04:05:56.487Z,1.65
2023-05-19T04:09:05.186Z,1.98
2023-05-19T04:12:10.612Z,1.70
2023-05-19T04:15:15.942Z,2.00
2023-05-19T04:18:21.130Z,1.92
2023-05-19T04:21:26.269Z,1.85
2023-05-19T04:24:35.016Z,2.00
2023-05-19T04:27:41.014Z,1.83
2023-05-19T04:30:46.746Z,1.83
2023-05-19T04:33:53.538Z,1.98
2023-05-19T04:36:59.506Z,1.80
2023-05-19T04:40:09.403Z,2.00
2023-05-19T04:43:14.747Z,1.92
2023-05-19T04:46:24.373Z,1.83
2023-05-19T04:49:31.037Z,1.88
2023-05-19T04:52:36.283Z,1.70
2023-05-19T04:55:44.333Z,2.00
2023-05-19T04:58:51.078Z,2.03
2023-05-19T05:01:56.856Z,2.35
2023-05-19T05:05:04.327Z,1.90
2023-05-19T05:08:15.149Z,1.88
2023-05-19T05:11:23.470Z,1.90
2023-05-19T05:14:29.303Z,2.00
2023-05-19T05:17:37.870Z,2.22
2023-05-19T05:20:44.554Z,1.77
2023-05-19T05:23:51.011Z,1.83
2023-05-19T05:26:59.104Z,1.85
2023-05-19T05:30:04.863Z,2.15
2023-05-19T05:33:13.934Z,2.08
2023-05-19T05:36:20.056Z,1.77
2023-05-19T05:39:25.163Z,1.85
2023-05-19T05:42:31.766Z,2.10
2023-05-19T05:45:37.008Z,1.90
2023-05-19T05:48:42.930Z,2.03
2023-05-19T05:52:04.378Z,2.08
2023-05-19T05:55:14.366Z,1.90
2023-05-19T05:58:21.367Z,2.08
2023-05-19T06:01:27.158Z,2.22
2023-05-19T06:04:32.356Z,2.17
2023-05-19T06:07:37.706Z,2.40
2023-05-19T06:13:52.233Z,1.88
2023-05-19T06:17:17.069Z,1.95
2023-05-19T06:20:22.287Z,2.50
2023-05-19T06:23:29.187Z,1.90
2023-05-19T06:26:34.586Z,1.52
2023-05-19T06:29:41.687Z,1.80
2023-05-19T06:32:47.663Z,1.83
2023-05-19T06:35:53.388Z,1.58
2023-05-19T06:39:01.206Z,1.77
2023-05-19T06:42:10.610Z,1.50
2023-05-19T06:45:36.980Z,1.15
2023-05-19T06:48:43.271Z,1.10
2023-05-19T06:51:49.314Z,1.50
2023-05-19T06:54:55.011Z,1.52
2023-05-19T06:58:00.069Z,1.42
2023-05-19T07:01:06.994Z,1.55
2023-05-19T07:04:18.780Z,1.38
2023-05-19T07:07:23.725Z,1.60
2023-05-19T07:10:29.890Z,1.23
2023-05-19T07:13:35.571Z,1.60
2023-05-19T07:16:42.116Z,1.20
2023-05-19T07:19:47.148Z,1.40
2023-05-19T07:22:52.848Z,1.25
2023-05-19T07:25:58.291Z,1.15
2023-05-19T07:29:03.275Z,1.42
2023-05-19T07:32:09.980Z,1.60
2023-05-19T07:35:15.590Z,1.80
2023-05-19T07:38:21.599Z,1.50
2023-05-19T07:41:26.908Z,2.00
2023-05-19T07:44:32.483Z,1.75
2023-05-19T07:47:39.171Z,1.45
2023-05-19T07:50:44.330Z,1.60
2023-05-19T07:53:49.373Z,1.30
2023-05-19T07:56:54.447Z,1.55
2023-05-19T07:59:59.456Z,1.58
2023-05-19T08:03:06.524Z,1.60
2023-05-19T08:06:14.596Z,1.40
2023-05-19T08:09:19.648Z,1.50
2023-05-19T08:12:24.750Z,1.65
2023-05-19T08:15:30.186Z,1.25
2023-05-19T08:18:37.008Z,1.30
2023-05-19T08:21:42.417Z,1.77
2023-05-19T08:24:49.745Z,1.30
2023-05-19T08:27:54.821Z,1.35
2023-05-19T08:31:01.326Z,1.50
2023-05-19T08:34:07.822Z,1.40
2023-05-19T08:37:13.883Z,2.00
2023-05-19T08:40:19.711Z,1.15
2023-05-19T08:43:24.821Z,1.48
2023-05-19T08:46:31.821Z,1.67
2023-05-19T08:49:52.469Z,1.70
2023-05-19T08:53:01.587Z,1.73
2023-05-19T08:56:11.325Z,1.70
2023-05-19T08:59:16.443Z,1.70
2023-05-19T09:02:22.098Z,1.20
2023-05-19T09:05:28.958Z,1.40
2023-05-19T09:08:34.029Z,1.50
2023-05-19T09:11:39.076Z,1.40
2023-05-19T09:14:44.207Z,1.58
2023-05-19T09:17:49.779Z,1.50
2023-05-19T09:21:02.571Z,1.30
2023-05-19T09:24:09.225Z,1.73
2023-05-19T09:27:17.129Z,1.20
2023-05-19T09:30:23.280Z,1.20
2023-05-19T09:33:28.531Z,1.23
2023-05-19T09:36:35.218Z,1.45
2023-05-19T09:39:40.832Z,1.40
2023-05-19T09:42:46.068Z,1.50
2023-05-19T09:45:52.385Z,1.48
2023-05-19T09:48:59.788Z,1.75
2023-05-19T09:52:07.040Z,1.20
2023-05-19T09:55:14.076Z,1.45
2023-05-19T09:58:19.444Z,1.30
2023-05-19T10:01:24.823Z,1.88
2023-05-19T10:04:30.812Z,1.50
2023-05-19T10:07:37.777Z,1.55
2023-05-19T10:10:42.783Z,1.35
2023-05-19T10:13:47.875Z,1.33
2023-05-19T10:16:53.761Z,4.10
2023-05-19T10:19:59.559Z,1.40
2023-05-19T10:23:06.344Z,1.70
2023-05-19T10:26:12.681Z,1.70
2023-05-19T10:29:20.612Z,1.60
2023-05-19T10:32:29.910Z,1.40
2023-05-19T10:36:08.688Z,1.40
2023-05-19T10:39:19.622Z,1.30
2023-05-19T10:42:31.132Z,1.30
2023-05-19T10:45:43.413Z,1.60
2023-05-19T10:48:48.450Z,1.10
2023-05-19T10:51:56.746Z,1.40
2023-05-19T10:55:04.893Z,1.83
2023-05-19T10:58:10.481Z,1.23
2023-05-19T11:01:17.209Z,1.10
2023-05-19T11:04:41.207Z,1.75
2023-05-19T11:08:02.260Z,1.60
2023-05-19T11:11:16.490Z,1.70
2023-05-19T11:14:23.269Z,1.30
2023-05-19T11:17:28.921Z,1.20
2023-05-19T11:20:35.302Z,1.27
2023-05-19T11:23:41.170Z,1.23
2023-05-19T11:26:47.890Z,1.42
2023-05-19T11:29:53.221Z,1.33
2023-05-19T11:32:58.977Z,1.50
2023-05-19T11:36:05.101Z,1.50
2023-05-19T11:39:12.334Z,1.42
2023-05-19T11:42:19.062Z,1.33
2023-05-19T11:45:27.262Z,1.20
2023-05-19T11:48:32.428Z,1.10
2023-05-19T11:51:38.502Z,1.35
2023-05-19T11:54:43.919Z,1.33
2023-05-19T11:58:04.727Z,1.00
2023-05-19T12:01:12.225Z,1.08
2023-05-19T12:04:17.225Z,1.15
2023-05-19T12:07:23.696Z,1.33
2023-05-19T12:10:30.415Z,1.30
2023-05-19T12:13:37.425Z,1.33
2023-05-19T12:16:42.536Z,1.25
2023-05-19T12:19:49.078Z,1.60
2023-05-19T12:22:56.305Z,1.80
2023-05-19T12:26:01.777Z,1.40
2023-05-19T12:29:08.660Z,1.25
2023-05-19T12:32:14.193Z,1.10
2023-05-19T12:35:19.856Z,1.10
2023-05-19T12:38:24.944Z,1.40
2023-05-19T12:41:31.952Z,1.30
2023-05-19T12:44:43.623Z,1.17
2023-05-19T12:47:49.830Z,1.20
2023-05-19T12:50:55.666Z,1.27
2023-05-19T12:54:04.593Z,0.90
2023-05-19T12:57:09.829Z,1.30
2023-05-19T13:00:20.851Z,0.90
2023-05-19T13:03:26.075Z,1.08
2023-05-19T13:06:32.877Z,1.30
2023-05-19T13:09:38.492Z,1.23
2023-05-19T13:12:43.554Z,1.30
2023-05-19T13:15:49.929Z,1.30
2023-05-19T13:18:55.050Z,1.40
2023-05-19T13:22:00.138Z,1.20
2023-05-19T13:25:05.358Z,1.25
2023-05-19T13:28:13.863Z,1.30
2023-05-19T13:31:20.656Z,1.13
2023-05-19T13:34:27.789Z,1.20
2023-05-19T13:37:32.982Z,1.08
2023-05-19T13:40:38.160Z,1.80
2023-05-19T13:43:43.389Z,1.08
2023-05-19T13:46:52.259Z,1.10
2023-05-19T13:49:57.739Z,1.20
2023-05-19T13:53:03.661Z,1.30
2023-05-19T13:56:11.479Z,1.15
2023-05-19T13:59:17.333Z,1.10
2023-05-19T14:02:24.002Z,1.20
2023-05-19T14:05:29.369Z,1.42
2023-05-19T14:08:34.502Z,1.33
2023-05-19T14:11:39.521Z,1.20
2023-05-19T14:14:44.794Z,1.13
2023-05-19T14:17:53.180Z,1.30
2023-05-19T14:20:58.317Z,1.42
2023-05-19T14:24:03.376Z,1.75
2023-05-19T14:27:08.689Z,1.05
2023-05-19T14:30:14.427Z,1.20
2023-05-19T14:33:21.603Z,1.55
2023-05-19T14:36:26.684Z,1.20
2023-05-19T14:39:32.309Z,1.10
2023-05-19T14:42:37.265Z,1.20
2023-05-19T14:45:42.950Z,1.30
2023-05-19T14:48:49.360Z,1.30
2023-05-19T14:51:54.565Z,1.23
2023-05-19T14:54:59.537Z,1.40
2023-05-19T14:58:12.912Z,1.10
2023-05-19T15:01:25.240Z,1.20
2023-05-19T15:04:31.897Z,1.20
2023-05-19T15:07:36.937Z,1.50
2023-05-19T15:10:41.965Z,1.20
2023-05-19T15:13:46.986Z,1.10
2023-05-19T15:16:52.117Z,1.25
2023-05-19T15:19:58.570Z,1.13
2023-05-19T15:23:03.529Z,1.08
2023-05-19T15:26:09.012Z,0.93
2023-05-19T15:29:14.091Z,1.40
2023-05-19T15:32:19.365Z,1.30
2023-05-19T15:35:25.971Z,1.02
2023-05-19T15:38:31.109Z,1.00
2023-05-19T15:41:36.271Z,1.00
2023-05-19T15:44:41.432Z,1.00
2023-05-19T15:47:46.497Z,1.25
2023-05-19T15:50:53.312Z,1.38
2023-05-19T15:53:58.381Z,1.30
2023-05-19T15:57:03.675Z,1.30
2023-05-19T16:00:10.460Z,1.50
2023-05-19T16:03:15.659Z,1.73
2023-05-19T16:06:22.439Z,1.35
2023-05-19T16:09:27.647Z,1.00
2023-05-19T16:12:32.701Z,1.20
2023-05-19T16:15:37.864Z,1.50
2023-05-19T16:18:44.262Z,1.42
2023-05-19T16:21:50.777Z,1.33
2023-05-19T16:24:55.773Z,1.45
2023-05-19T16:28:00.915Z,1.33
2023-05-19T16:31:06.118Z,1.30
2023-05-19T16:34:13.157Z,1.20
2023-05-19T16:37:19.588Z,1.73
2023-05-19T16:40:24.561Z,2.03
2023-05-19T16:43:29.621Z,1.83
2023-05-19T16:46:34.987Z,1.60
2023-05-19T16:49:40.976Z,1.13
2023-05-19T16:52:47.409Z,1.30
2023-05-19T16:55:52.523Z,1.33
2023-05-19T16:58:57.800Z,1.40
2023-05-19T17:02:02.867Z,1.40
2023-05-19T17:05:08.930Z,1.08
2023-05-19T17:08:16.658Z,1.30
2023-05-19T17:11:22.534Z,1.98
2023-05-19T17:14:27.593Z,1.33
2023-05-19T17:17:32.645Z,1.27
2023-05-19T17:20:37.768Z,1.55
2023-05-19T17:23:44.840Z,1.40
2023-05-19T17:26:49.893Z,1.65
2023-05-19T17:29:55.115Z,1.60
2023-05-19T17:33:01.110Z,1.30
2023-05-19T17:36:07.566Z,1.50
2023-05-19T17:39:15.035Z,1.33
2023-05-19T17:42:20.028Z,1.55
2023-05-19T17:45:26.603Z,1.70
2023-05-19T17:48:31.876Z,1.67
2023-05-19T17:51:37.517Z,1.77
2023-05-19T17:54:44.490Z,1.10
2023-05-19T17:57:50.255Z,1.60
2023-05-19T18:00:55.738Z,1.42
2023-05-19T18:04:01.603Z,1.80
2023-05-19T18:07:07.645Z,1.60
2023-05-19T18:10:17.393Z,1.50
2023-05-19T18:13:23.696Z,1.58
2023-05-19T18:16:29.544Z,1.50
2023-05-19T18:19:34.598Z,1.50
2023-05-19T18:22:40.700Z,1.50
2023-05-19T18:25:53.418Z,1.65
2023-05-19T18:29:02.583Z,1.23
2023-05-19T18:32:08.451Z,1.90
2023-05-19T18:35:15.829Z,1.40
2023-05-19T18:38:23.686Z,1.38
2023-05-19T18:41:30.470Z,1.50
2023-05-19T18:44:35.511Z,1.40
2023-05-19T18:47:40.751Z,1.65
2023-05-19T18:50:45.704Z,1.50
2023-05-19T18:53:51.016Z,1.42
2023-05-19T18:56:57.702Z,1.65
2023-05-19T19:00:04.330Z,1.52
2023-05-19T19:03:11.896Z,1.60
2023-05-19T19:06:18.126Z,1.65
2023-05-19T19:09:23.476Z,1.70
2023-05-19T19:12:30.206Z,2.13
2023-05-19T19:15:35.219Z,1.90
2023-05-19T19:18:40.548Z,1.60
2023-05-19T19:21:45.605Z,1.45
2023-05-19T19:24:50.779Z,1.80
2023-05-19T19:27:57.174Z,1.70
2023-05-19T19:31:02.524Z,1.48
2023-05-19T19:34:09.259Z,1.30
2023-05-19T19:37:14.542Z,1.30
2023-05-19T19:40:19.799Z,1.25
2023-05-19T19:43:26.384Z,1.42
2023-05-19T19:46:31.504Z,1.10
2023-05-19T19:49:36.717Z,1.40
2023-05-19T19:52:41.744Z,2.20
2023-05-19T19:55:46.796Z,1.80
2023-05-19T19:58:53.227Z,2.90
2023-05-19T20:01:58.721Z,2.42
2023-05-19T20:05:03.809Z,2.58
2023-05-19T20:08:08.979Z,2.85
2023-05-19T20:11:15.570Z,2.10
2023-05-19T20:14:22.151Z,1.83
2023-05-19T20:17:27.265Z,1.80
2023-05-19T20:20:32.527Z,1.80
2023-05-19T20:23:38.928Z,2.03
2023-05-19T20:26:44.029Z,2.50
2023-05-19T20:29:50.583Z,2.28
2023-05-19T20:32:56.233Z,2.35
2023-05-19T20:36:01.292Z,2.50
2023-05-19T20:39:07.071Z,2.13
2023-05-19T20:42:12.574Z,1.83
2023-05-19T20:45:19.585Z,2.53
2023-05-19T20:48:24.595Z,2.10
2023-05-19T20:51:29.689Z,2.00
2023-05-19T20:54:34.687Z,2.22
2023-05-19T20:57:39.715Z,2.58
2023-05-19T21:00:46.079Z,1.98
2023-05-19T21:03:51.333Z,2.40
2023-05-19T21:06:56.571Z,2.60
2023-05-19T21:10:01.912Z,2.67
2023-05-19T21:13:07.214Z,2.63
2023-05-19T21:16:14.769Z,2.72
2023-05-19T21:19:20.895Z,3.03
2023-05-19T21:22:26.660Z,2.35
2023-05-19T21:25:32.170Z,2.67
2023-05-19T21:28:37.149Z,2.50
2023-05-19T21:31:43.529Z,2.42
2023-05-19T21:34:48.625Z,2.60
2023-05-19T21:37:53.586Z,3.00
2023-05-19T21:40:58.593Z,4.00
2023-05-19T21:44:03.596Z,3.65
2023-05-19T21:47:10.049Z,3.47
2023-05-19T21:50:17.487Z,3.20
2023-05-19T21:53:22.589Z,3.10
2023-05-19T21:56:27.585Z,2.92
2023-05-19T21:59:32.614Z,3.17
2023-05-19T22:02:39.334Z,2.88
2023-05-19T22:05:44.965Z,3.83
2023-05-19T22:08:50.063Z,2.80
2023-05-19T22:11:55.086Z,2.50
2023-05-19T22:15:01.143Z,2.33
2023-05-19T22:18:08.194Z,2.15
2023-05-19T22:21:13.334Z,2.40
2023-05-19T22:24:18.629Z,2.20
2023-05-19T22:27:23.552Z,2.05
2023-05-19T22:30:28.723Z,2.47
2023-05-19T22:33:35.143Z,2.33
2023-05-19T22:36:41.353Z,2.20
2023-05-19T22:39:46.785Z,2.20
2023-05-19T22:42:51.831Z,2.00
2023-05-19T22:45:57.134Z,2.17
2023-05-19T22:49:03.650Z,1.95
2023-05-19T22:52:10.933Z,2.40
2023-05-19T22:55:16.547Z,1.65
2023-05-19T22:58:21.544Z,1.70
2023-05-19T23:01:26.639Z,1.90
2023-05-19T23:04:33.234Z,1.70
2023-05-19T23:07:38.446Z,1.80
2023-05-19T23:10:43.372Z,2.40
2023-05-19T23:13:48.428Z,2.00
2023-05-19T23:16:53.577Z,1.73
2023-05-19T23:20:00.330Z,1.60
2023-05-19T23:23:05.827Z,1.95
2023-05-19T23:26:13.503Z,2.15
2023-05-19T23:29:18.570Z,2.13
2023-05-19T23:32:23.749Z,2.22
2023-05-19T23:35:30.595Z,1.75
2023-05-19T23:38:35.632Z,2.83
2023-05-19T23:41:40.567Z,1.92
2023-05-19T23:44:45.669Z,2.08
2023-05-19T23:47:50.740Z,2.00
2023-05-19T23:50:57.913Z,2.40
2023-05-19T23:54:02.886Z,2.85
2023-05-19T23:57:08.447Z,2.03
